RJTTTNCM

Guest
Details From RJTT - Tokyo Haneda Intl
To TNCM - St Maarten - Princess Juliana Intl
Flight Number -
Tags decoded
Created
Modified
Stats Distance 7,338 nm / 13,590 km
Max Altitude 0 ft / 0 m
Waypoints 3
Social Downloads 1
Likes 0
Share VATSIM

Download

Looking for another format? Having issues loading an existing format? Contact us
Advertisement - Login to hide

Notes

Requested: RJTT SCC TTQ RBV TNCM Unmatched points: TTQ

Route

RJTT RBV TNCM

ID Type Via Altitude Latitude Longitude Leg Dist Tot Dist Heading (true) Name
O RJTT APT - 0 ft / 0 m 35.54825˚ 139.78855˚ - 0 nm - Tokyo Haneda Intl
RBV VOR - 0 ft / 0 m 40.20239˚ -74.49503˚ 5882 nm 5882 nm 26° / 152° ROBBINSVILLE VORTAC
O TNCM APT - 0 ft / 0 m 18.04089˚ -63.10897˚ 1455 nm 7337 nm 153° / 158° St Maarten - Princess Juliana Intl

Altitude Profile

Advertisement - Login to hide

Weather


0- 5 10 15 20 25 30 35+ Temperature / ° C

Clouds and Precipitation
Forecast for 2017-12-11 12:00 UTC. Updated 9 minutes ago

Ground ~20,000 ft ~40,000 ft Winds

RJTT

Details ICAO RJTT (HND)
Name Tokyo Haneda Intl
Region Japan
Timezone Asia/Tokyo (UTC+9.0)
Stats Elevation 20 ft / 6 m (AMSL)
Location 35.548254° 139.788554°
Runways 4
Magnetic Variation 7.424° W

METAR

RJTT 110900Z 23019G31KT 9999 FEW030 13/M01 Q1001 NOSIG RMK 1CU030 A2957

Decode

TAF

TAF RJTT 110507Z 1106/1212 23024KT 9999 FEW030 TEMPO 1106/1109 23026G36KT BECMG 1109/1111 26014KT BECMG 1116/1118 22012KT BECMG 1203/1206 34008KT

Decode

Departure Runways

ID Width Length Bearing (true) Bearing (mag) Surface Threshold Offset Overrun Length
04 200 ft / 61 m 8,211 ft / 2,503 m 34.90° 42.32° Asphalt 0 ft / 0 m 200 ft / 61 m
05 197 ft / 60 m 8,206 ft / 2,501 m 42.44° 49.86° Asphalt 0 ft / 0 m 197 ft / 60 m
16L 200 ft / 61 m 9,856 ft / 3,004 m 150.00° 157.42° Asphalt 0 ft / 0 m 200 ft / 61 m
16R 200 ft / 61 m 9,986 ft / 3,044 m 150.01° 157.43° Asphalt 131 ft / 40 m 0 ft / 0 m
22 200 ft / 61 m 8,211 ft / 2,503 m 214.90° 222.32° Asphalt 0 ft / 0 m 200 ft / 61 m
23 197 ft / 60 m 8,206 ft / 2,501 m 222.45° 229.87° Asphalt 0 ft / 0 m 197 ft / 60 m
34L 200 ft / 61 m 9,986 ft / 3,044 m 330.02° 337.44° Asphalt 0 ft / 0 m 197 ft / 60 m
34R 200 ft / 61 m 9,856 ft / 3,004 m 330.01° 337.43° Asphalt 0 ft / 0 m 200 ft / 61 m

TNCM

Details ICAO TNCM (SXM)
Name St Maarten - Princess Juliana Intl
Region Caribbean Netherlands, Aruba, Curaçao, Sint Maarten
Timezone Unknown (UTC+0.0)
Stats Elevation 12 ft / 4 m (AMSL)
Location 18.040889° -63.108974°
Runways 1
Magnetic Variation 14.325° W

METAR

Not found

TAF

TAF TNCM 110540Z 1106/1206 06010KT P6SM VCSH SCT018 SCT035

Decode

Destination Runways

ID Width Length Bearing (true) Bearing (mag) Surface Threshold Offset Overrun Length
10 148 ft / 45 m 7,464 ft / 2,275 m 81.43° 95.75° Asphalt 0 ft / 0 m 151 ft / 46 m
28 148 ft / 45 m 7,464 ft / 2,275 m 261.44° 275.76° Asphalt 397 ft / 121 m 0 ft / 0 m

Popular Alternatives